Gasburg, Virginia
Current Conditions -  °F | °C
As of 11:36 PM on Sunday 21 Dec 2014 (Local Time) from KAVC Reporting Station
Overcast Overcast  
Wind Chill: 34°   Ceiling: 6000
Heat Index: 34°   Visibility: 10mi
Dew Point: 29°   Wind: 0mph
Humidity: 83%   Direction: NA
Pressure: 30.33"   Gusts: NA
Location:  36.58°N, 77.88°W
Report Text: KAVC 220436Z AUTO 00000KT 10SM SCT045 OVC060 01/M01 A3033 RMK AO2 T00121014
Loading
Personal Weather Stations






























Interactive Weather Map New forecast layout! Learn more

10-Day Weather Forecast

Advertisements
Track Severe Weather on mobile